createdAt,value
2023-05-02T00:00:16.094Z,16.76
2023-05-02T00:03:05.990Z,16.51
2023-05-02T00:05:38.802Z,16.57
2023-05-02T00:08:10.735Z,16.17
2023-05-02T00:10:39.742Z,16.93
2023-05-02T00:13:08.164Z,16.88
2023-05-02T00:15:36.795Z,16.96
2023-05-02T00:18:05.463Z,17.17
2023-05-02T00:20:34.186Z,17.44
2023-05-02T00:23:02.481Z,17.80
2023-05-02T00:25:33.152Z,17.33
2023-05-02T00:28:01.325Z,17.86
2023-05-02T00:30:30.233Z,17.77
2023-05-02T00:32:58.657Z,17.40
2023-05-02T00:35:27.400Z,17.81
2023-05-02T00:37:55.854Z,17.53
2023-05-02T00:40:24.467Z,17.97
2023-05-02T00:42:54.761Z,17.82
2023-05-02T00:45:23.368Z,17.97
2023-05-02T00:47:52.070Z,18.29
2023-05-02T00:50:21.045Z,18.30
2023-05-02T00:52:49.415Z,18.47
2023-05-02T00:55:18.643Z,18.40
2023-05-02T00:57:46.992Z,18.22
2023-05-02T01:00:17.227Z,18.29
2023-05-02T01:02:50.168Z,18.12
2023-05-02T01:05:23.159Z,18.24
2023-05-02T01:08:03.127Z,18.24
2023-05-02T01:10:43.479Z,18.27
2023-05-02T01:13:15.053Z,18.42
2023-05-02T01:15:46.899Z,18.58
2023-05-02T01:18:16.439Z,18.98
2023-05-02T01:20:46.305Z,18.91
2023-05-02T01:23:19.209Z,18.76
2023-05-02T01:25:57.873Z,18.39
2023-05-02T01:28:33.074Z,18.84
2023-05-02T01:31:06.076Z,19.01
2023-05-02T01:33:36.728Z,18.84
2023-05-02T01:36:06.292Z,19.17
2023-05-02T01:38:36.388Z,18.83
2023-05-02T01:41:07.377Z,19.03
2023-05-02T01:43:36.776Z,19.03
2023-05-02T01:46:08.662Z,18.98
2023-05-02T01:48:38.222Z,18.84
2023-05-02T01:51:08.078Z,18.95
2023-05-02T01:53:37.086Z,19.12
2023-05-02T01:56:06.343Z,19.36
2023-05-02T01:58:34.836Z,19.30
2023-05-02T02:01:05.603Z,19.56
2023-05-02T02:03:35.639Z,19.37
2023-05-02T02:06:07.123Z,19.30
2023-05-02T02:08:35.566Z,19.51
2023-05-02T02:11:10.899Z,19.37
2023-05-02T02:13:42.424Z,19.12
2023-05-02T02:16:13.822Z,19.52
2023-05-02T02:18:44.732Z,19.21
2023-05-02T02:21:13.627Z,19.54
2023-05-02T02:23:44.103Z,19.43
2023-05-02T02:26:14.084Z,19.27
2023-05-02T02:28:42.956Z,19.40
2023-05-02T02:31:11.607Z,19.66
2023-05-02T02:33:40.105Z,19.30
2023-05-02T02:36:15.762Z,19.00
2023-05-02T02:38:48.306Z,19.34
2023-05-02T02:41:21.730Z,19.01
2023-05-02T02:43:55.406Z,18.98
2023-05-02T02:46:31.699Z,18.85
2023-05-02T02:49:14.119Z,18.91
2023-05-02T02:51:47.235Z,19.27
2023-05-02T02:54:27.178Z,18.94
2023-05-02T02:57:01.680Z,18.98
2023-05-02T02:59:32.178Z,19.34
2023-05-02T03:02:05.794Z,19.28
2023-05-02T03:04:35.844Z,19.25
2023-05-02T03:07:06.230Z,19.63
2023-05-02T03:09:44.793Z,19.15
2023-05-02T03:12:13.897Z,19.45
2023-05-02T03:14:42.711Z,19.48
2023-05-02T03:17:11.301Z,19.62
2023-05-02T03:19:39.693Z,19.60
2023-05-02T03:22:09.850Z,19.02
2023-05-02T03:24:38.178Z,19.19
2023-05-02T03:27:07.276Z,18.97
2023-05-02T03:29:35.691Z,18.89
2023-05-02T03:32:04.377Z,18.96
2023-05-02T03:34:33.499Z,18.81
2023-05-02T03:37:01.989Z,18.92
2023-05-02T03:39:32.177Z,18.71
2023-05-02T03:42:00.978Z,18.92
2023-05-02T03:44:29.384Z,18.68
2023-05-02T03:46:58.138Z,18.81
2023-05-02T03:49:26.499Z,19.01
2023-05-02T03:51:55.371Z,18.97
2023-05-02T03:54:24.133Z,18.88
2023-05-02T03:56:55.014Z,18.53
2023-05-02T03:59:23.454Z,18.75
2023-05-02T04:01:52.095Z,18.85
2023-05-02T04:04:20.531Z,18.63
2023-05-02T04:06:49.525Z,18.61
2023-05-02T04:09:19.478Z,18.64
2023-05-02T04:11:48.214Z,18.41
2023-05-02T04:14:18.026Z,18.08
2023-05-02T04:16:49.829Z,17.88
2023-05-02T04:19:19.287Z,18.05
2023-05-02T04:21:48.173Z,17.95
2023-05-02T04:24:16.904Z,17.66
2023-05-02T04:26:47.739Z,17.33
2023-05-02T04:29:17.943Z,17.15
2023-05-02T04:31:46.545Z,16.89
2023-05-02T04:34:14.867Z,16.84
2023-05-02T04:36:43.349Z,16.40
2023-05-02T04:39:11.769Z,15.90
2023-05-02T04:41:40.405Z,15.55
2023-05-02T04:44:08.755Z,15.44
2023-05-02T04:46:38.737Z,14.80
2023-05-02T04:49:07.225Z,14.72
2023-05-02T04:51:35.954Z,14.69
2023-05-02T04:54:04.372Z,14.77
2023-05-02T04:56:32.924Z,14.23
2023-05-02T04:59:01.626Z,14.24
2023-05-02T05:01:30.450Z,13.91
2023-05-02T05:04:00.462Z,13.73
2023-05-02T05:06:29.232Z,13.83
2023-05-02T05:08:57.568Z,13.77
2023-05-02T05:11:27.240Z,13.27
2023-05-02T05:13:55.566Z,13.34
2023-05-02T05:16:24.511Z,13.31
2023-05-02T05:18:54.180Z,12.88
2023-05-02T05:21:24.221Z,12.45
2023-05-02T05:23:52.575Z,12.16
2023-05-02T05:26:21.493Z,12.07
2023-05-02T05:28:50.933Z,11.86
2023-05-02T05:31:21.179Z,11.61
2023-05-02T05:33:49.640Z,11.59
2023-05-02T05:36:19.145Z,11.73
2023-05-02T05:38:49.248Z,11.37
2023-05-02T05:41:18.212Z,11.47
2023-05-02T05:43:46.546Z,11.17
2023-05-02T05:46:15.396Z,10.83
2023-05-02T05:48:43.939Z,10.76
2023-05-02T05:51:12.816Z,10.72
2023-05-02T05:53:41.320Z,10.59
2023-05-02T05:56:12.112Z,10.12
2023-05-02T05:58:42.801Z,9.75
2023-05-02T06:01:11.885Z,8.45
2023-05-02T06:03:40.267Z,8.80
2023-05-02T06:06:09.382Z,8.50
2023-05-02T06:08:38.023Z,8.08
2023-05-02T06:11:12.095Z,7.70
2023-05-02T06:13:40.606Z,7.01
2023-05-02T06:16:09.514Z,6.93
2023-05-02T06:18:38.007Z,6.84
2023-05-02T06:21:07.548Z,6.45
2023-05-02T06:23:38.571Z,6.41
2023-05-02T06:26:07.353Z,6.57
2023-05-02T06:28:37.699Z,6.21
2023-05-02T06:31:07.184Z,6.57
2023-05-02T06:33:35.823Z,6.91
2023-05-02T06:36:05.025Z,7.13
2023-05-02T06:38:33.417Z,7.31
2023-05-02T06:41:02.445Z,7.84
2023-05-02T06:43:31.000Z,7.61
2023-05-02T06:46:02.971Z,7.73
2023-05-02T06:48:31.373Z,7.82
2023-05-02T06:51:00.123Z,8.48
2023-05-02T06:53:29.417Z,8.28
2023-05-02T06:55:59.080Z,8.12
2023-05-02T06:58:27.918Z,7.73
2023-05-02T07:00:56.774Z,7.52
2023-05-02T07:03:26.657Z,7.05
2023-05-02T07:05:55.294Z,7.16
2023-05-02T07:08:24.031Z,6.79
2023-05-02T07:10:53.018Z,7.10
2023-05-02T07:13:21.350Z,6.45
2023-05-02T07:15:50.851Z,6.85
2023-05-02T07:18:19.417Z,6.77
2023-05-02T07:20:49.431Z,6.60
2023-05-02T07:23:17.819Z,6.76
2023-05-02T07:25:46.988Z,7.15
2023-05-02T07:28:15.491Z,7.09
2023-05-02T07:30:44.497Z,7.15
2023-05-02T07:33:13.245Z,7.38
2023-05-02T07:35:41.947Z,7.17
2023-05-02T07:38:11.874Z,6.56
2023-05-02T07:40:40.638Z,6.66
2023-05-02T07:43:11.076Z,6.67
2023-05-02T07:45:40.076Z,6.31
2023-05-02T07:48:08.748Z,6.03
2023-05-02T07:50:37.681Z,5.80
2023-05-02T07:53:06.007Z,5.44
2023-05-02T07:55:36.102Z,5.10
2023-05-02T07:58:04.658Z,4.33
2023-05-02T08:00:33.313Z,3.91
2023-05-02T08:03:02.083Z,3.42
2023-05-02T08:05:31.132Z,2.86
2023-05-02T08:08:00.299Z,2.59
2023-05-02T08:10:29.362Z,2.12
2023-05-02T08:12:59.161Z,1.74
2023-05-02T08:15:28.196Z,1.22
2023-05-02T08:17:56.664Z,1.30
2023-05-02T08:20:25.701Z,1.01
2023-05-02T08:22:54.122Z,0.83
2023-05-02T08:25:22.807Z,0.73
2023-05-02T08:27:51.288Z,0.68
2023-05-02T08:30:21.302Z,0.24
2023-05-02T08:32:49.781Z,0.65
2023-05-02T08:35:19.076Z,0.18
2023-05-02T08:37:47.652Z,0.63
2023-05-02T08:40:27.288Z,0.47
2023-05-02T08:43:03.076Z,0.96
2023-05-02T08:45:39.211Z,1.32
2023-05-02T08:48:10.680Z,2.20
2023-05-02T08:50:41.733Z,2.98
2023-05-02T08:53:11.580Z,3.71
2023-05-02T08:55:41.171Z,3.99
2023-05-02T08:58:10.886Z,3.55
2023-05-02T09:00:44.119Z,3.86
2023-05-02T09:03:21.322Z,4.81
2023-05-02T09:05:54.863Z,5.27
2023-05-02T09:08:24.382Z,5.83
2023-05-02T09:10:53.337Z,6.32
2023-05-02T09:13:32.275Z,6.16
2023-05-02T09:16:03.795Z,6.26
2023-05-02T09:18:33.402Z,6.88
2023-05-02T09:21:03.465Z,6.73
2023-05-02T09:23:38.857Z,6.64
2023-05-02T09:26:15.274Z,6.02
2023-05-02T09:28:45.367Z,6.11
2023-05-02T09:31:26.940Z,5.10
2023-05-02T09:34:09.975Z,6.05
2023-05-02T09:36:42.194Z,6.58
2023-05-02T09:39:13.692Z,7.25
2023-05-02T09:41:43.198Z,6.86
2023-05-02T09:44:12.745Z,5.92
2023-05-02T09:46:44.303Z,5.65
2023-05-02T09:49:14.942Z,6.79
2023-05-02T09:51:44.270Z,7.46
2023-05-02T09:54:13.130Z,7.59
2023-05-02T09:56:56.808Z,6.66
2023-05-02T09:59:26.000Z,6.17
2023-05-02T10:02:00.342Z,5.24
2023-05-02T10:04:30.081Z,4.96
2023-05-02T10:06:59.568Z,5.40
2023-05-02T10:09:28.894Z,6.25
2023-05-02T10:11:58.364Z,6.39
2023-05-02T10:14:29.691Z,6.40
2023-05-02T10:17:04.006Z,6.29
2023-05-02T10:19:40.770Z,6.79
2023-05-02T10:22:10.112Z,6.79
2023-05-02T10:24:40.052Z,6.66
2023-05-02T10:27:09.058Z,6.00
2023-05-02T10:29:37.919Z,6.02
2023-05-02T10:32:09.124Z,5.98
2023-05-02T10:34:38.104Z,6.77
2023-05-02T10:37:07.204Z,6.97
2023-05-02T10:39:35.798Z,7.18
2023-05-02T10:42:05.756Z,6.80
2023-05-02T10:44:35.044Z,7.20
2023-05-02T10:47:21.983Z,6.46
2023-05-02T10:49:54.574Z,7.42
2023-05-02T10:52:27.700Z,7.78
2023-05-02T10:55:18.183Z,7.45
2023-05-02T10:58:23.766Z,7.56
2023-05-02T11:00:52.405Z,8.45
2023-05-02T11:03:58.349Z,8.12
2023-05-02T11:06:28.437Z,8.97
2023-05-02T11:09:30.571Z,8.69
2023-05-02T11:11:59.761Z,8.97
2023-05-02T11:14:45.061Z,8.42
2023-05-02T11:17:14.200Z,8.52
2023-05-02T11:20:28.756Z,8.00
2023-05-02T11:23:26.219Z,8.29
2023-05-02T11:25:57.530Z,8.28
2023-05-02T11:28:42.258Z,8.02
2023-05-02T11:31:32.361Z,8.58
2023-05-02T11:34:03.080Z,8.49
2023-05-02T11:36:33.821Z,8.91
2023-05-02T11:39:03.356Z,9.91
2023-05-02T11:41:41.338Z,10.11
2023-05-02T11:44:09.662Z,10.74
2023-05-02T11:46:39.680Z,10.58
2023-05-02T11:49:10.992Z,10.48
2023-05-02T11:51:40.818Z,10.43
2023-05-02T11:54:10.633Z,10.74
2023-05-02T11:56:42.021Z,10.08
2023-05-02T11:59:11.395Z,10.58
2023-05-02T12:01:49.408Z,10.17
2023-05-02T12:04:24.150Z,10.49
2023-05-02T12:06:56.985Z,10.14
2023-05-02T12:09:25.816Z,10.50
2023-05-02T12:11:54.992Z,10.87
2023-05-02T12:14:30.511Z,9.98
2023-05-02T12:17:00.160Z,10.60
2023-05-02T12:19:30.334Z,10.31
2023-05-02T12:22:00.205Z,10.67
2023-05-02T12:24:30.069Z,10.40
2023-05-02T12:27:12.235Z,10.41
2023-05-02T12:29:41.940Z,10.83
2023-05-02T12:32:10.775Z,10.79
2023-05-02T12:34:41.454Z,10.28
2023-05-02T12:37:12.053Z,10.20
2023-05-02T12:39:42.482Z,10.44
2023-05-02T12:42:12.565Z,10.58
2023-05-02T12:44:42.322Z,10.48
2023-05-02T12:47:12.550Z,10.74
2023-05-02T12:49:52.000Z,10.88
2023-05-02T12:52:21.484Z,11.35
2023-05-02T12:54:50.205Z,11.18
2023-05-02T12:57:26.299Z,11.40
2023-05-02T12:59:55.535Z,11.64
2023-05-02T13:02:24.769Z,11.79
2023-05-02T13:04:54.920Z,11.96
2023-05-02T13:07:23.800Z,11.90
2023-05-02T13:09:53.038Z,12.03
2023-05-02T13:12:22.200Z,12.10
2023-05-02T13:14:50.789Z,11.52
2023-05-02T13:17:19.470Z,11.91
2023-05-02T13:19:57.916Z,11.61
2023-05-02T13:22:31.652Z,11.46
2023-05-02T13:24:59.858Z,11.76
2023-05-02T13:27:28.865Z,11.60
2023-05-02T13:29:57.791Z,11.29
2023-05-02T13:32:27.011Z,11.69
2023-05-02T13:34:55.542Z,11.83
2023-05-02T13:37:24.150Z,11.62
2023-05-02T13:39:54.099Z,11.59
2023-05-02T13:42:23.043Z,11.62
2023-05-02T13:44:51.317Z,11.53
2023-05-02T13:47:20.207Z,11.30
2023-05-02T13:49:48.533Z,11.26
2023-05-02T13:52:17.471Z,11.35
2023-05-02T13:54:45.797Z,11.75
2023-05-02T13:57:16.009Z,11.23
2023-05-02T13:59:44.359Z,11.69
2023-05-02T14:02:13.111Z,11.23
2023-05-02T14:04:41.771Z,11.81
2023-05-02T14:07:11.495Z,11.75
2023-05-02T14:09:39.941Z,12.28
2023-05-02T14:12:08.427Z,11.96
2023-05-02T14:14:38.484Z,12.07
2023-05-02T14:17:07.108Z,12.48
2023-05-02T14:19:35.896Z,12.59
2023-05-02T14:22:04.748Z,12.24
2023-05-02T14:24:33.020Z,12.10
2023-05-02T14:27:01.790Z,11.89
2023-05-02T14:29:30.092Z,11.79
2023-05-02T14:32:00.423Z,10.96
2023-05-02T14:34:28.980Z,11.00
2023-05-02T14:36:57.730Z,11.11
2023-05-02T14:39:27.739Z,11.16
2023-05-02T14:41:56.297Z,11.40
2023-05-02T14:44:24.903Z,11.21
2023-05-02T14:46:55.822Z,11.17
2023-05-02T14:49:25.743Z,11.09
2023-05-02T14:51:56.278Z,11.34
2023-05-02T14:54:28.406Z,11.37
2023-05-02T14:56:58.474Z,11.54
2023-05-02T14:59:29.937Z,11.49
2023-05-02T15:01:58.907Z,11.77
2023-05-02T15:04:28.836Z,11.42
2023-05-02T15:06:58.557Z,11.65
2023-05-02T15:09:27.394Z,11.37
2023-05-02T15:11:56.657Z,11.81
2023-05-02T15:14:25.161Z,12.03
2023-05-02T15:16:55.124Z,11.93
2023-05-02T15:19:25.369Z,12.17
2023-05-02T15:21:57.392Z,12.30
2023-05-02T15:24:25.920Z,12.31
2023-05-02T15:26:54.551Z,12.86
2023-05-02T15:29:23.011Z,12.65
2023-05-02T15:31:51.581Z,12.72
2023-05-02T15:34:20.412Z,12.61
2023-05-02T15:36:49.246Z,12.76
2023-05-02T15:39:19.452Z,13.11
2023-05-02T15:41:48.611Z,13.09
2023-05-02T15:44:16.988Z,13.63
2023-05-02T15:46:47.240Z,13.77
2023-05-02T15:49:15.708Z,14.13
2023-05-02T15:51:44.339Z,14.43
2023-05-02T15:54:12.908Z,14.62
2023-05-02T15:56:43.880Z,14.52
2023-05-02T15:59:12.117Z,14.73
2023-05-02T16:01:40.787Z,14.97
2023-05-02T16:04:10.006Z,14.73
2023-05-02T16:06:41.762Z,15.23
2023-05-02T16:09:10.256Z,14.58
2023-05-02T16:11:38.955Z,15.12
2023-05-02T16:14:08.557Z,14.91
2023-05-02T16:16:37.207Z,15.29
2023-05-02T16:19:12.635Z,15.35
2023-05-02T16:21:42.173Z,15.51
2023-05-02T16:24:10.726Z,15.54
2023-05-02T16:26:39.262Z,15.48
2023-05-02T16:29:08.921Z,15.37
2023-05-02T16:31:37.696Z,15.90
2023-05-02T16:34:06.146Z,15.91
2023-05-02T16:36:34.837Z,15.68
2023-05-02T16:39:03.168Z,15.48
2023-05-02T16:41:31.848Z,15.90
2023-05-02T16:44:00.168Z,15.45
2023-05-02T16:46:30.193Z,15.51
2023-05-02T16:48:58.699Z,15.78
2023-05-02T16:53:56.330Z,16.17
2023-05-02T16:56:24.948Z,15.84
2023-05-02T16:58:53.148Z,16.31
2023-05-02T17:01:22.696Z,16.27
2023-05-02T17:03:52.435Z,16.53
2023-05-02T17:06:21.347Z,16.73
2023-05-02T17:08:49.905Z,17.27
2023-05-02T17:11:18.736Z,17.35
2023-05-02T17:13:49.869Z,17.40
2023-05-02T17:16:20.088Z,17.84
2023-05-02T17:18:49.080Z,17.91
2023-05-02T17:21:19.340Z,17.81
2023-05-02T17:23:47.638Z,18.12
2023-05-02T17:26:16.815Z,18.48
2023-05-02T17:28:46.040Z,18.65
2023-05-02T17:31:14.794Z,18.63
2023-05-02T17:33:43.235Z,18.48
2023-05-02T17:36:12.032Z,18.51
2023-05-02T17:38:42.766Z,18.47
2023-05-02T17:41:11.641Z,18.84
2023-05-02T17:43:42.484Z,18.65
2023-05-02T17:46:11.370Z,18.81
2023-05-02T17:48:40.647Z,18.57
2023-05-02T17:51:09.470Z,18.60
2023-05-02T17:53:37.862Z,18.45
2023-05-02T17:56:08.725Z,18.44
2023-05-02T17:58:37.676Z,18.37
2023-05-02T18:01:10.688Z,18.21
2023-05-02T18:03:39.587Z,18.97
2023-05-02T18:06:10.297Z,18.72
2023-05-02T18:08:38.853Z,18.47
2023-05-02T18:11:15.221Z,18.28
2023-05-02T18:13:43.848Z,18.83
2023-05-02T18:16:14.268Z,18.89
2023-05-02T18:18:42.758Z,19.00
2023-05-02T18:21:11.741Z,19.22
2023-05-02T18:23:40.889Z,19.40
2023-05-02T18:26:14.401Z,19.32
2023-05-02T18:28:44.573Z,20.48
2023-05-02T18:31:17.890Z,19.64
2023-05-02T18:33:47.155Z,20.23
2023-05-02T18:36:19.316Z,20.32
2023-05-02T18:38:47.960Z,20.30
2023-05-02T18:41:18.494Z,20.50
2023-05-02T18:43:46.830Z,20.38
2023-05-02T18:46:15.488Z,20.30
2023-05-02T18:48:43.834Z,20.34
2023-05-02T18:51:12.652Z,20.43
2023-05-02T18:53:41.054Z,20.16
2023-05-02T18:56:13.936Z,19.42
2023-05-02T18:58:43.877Z,19.55
2023-05-02T19:01:15.341Z,20.02
2023-05-02T19:03:44.609Z,19.68
2023-05-02T19:06:14.319Z,20.19
2023-05-02T19:08:42.594Z,20.43
2023-05-02T19:11:11.093Z,21.02
2023-05-02T19:13:39.720Z,21.31
2023-05-02T19:16:13.678Z,21.10
2023-05-02T19:18:43.517Z,21.80
2023-05-02T19:21:13.660Z,21.66
2023-05-02T19:23:43.099Z,22.10
2023-05-02T19:26:13.077Z,21.98
2023-05-02T19:28:41.790Z,22.43
2023-05-02T19:31:12.740Z,22.08
2023-05-02T19:33:41.672Z,22.49
2023-05-02T19:36:10.530Z,22.47
2023-05-02T19:38:39.151Z,22.48
2023-05-02T19:41:08.801Z,22.82
2023-05-02T19:43:37.133Z,22.71
2023-05-02T19:46:05.842Z,22.62
2023-05-02T19:48:35.782Z,22.53
2023-05-02T19:51:05.345Z,22.64
2023-05-02T19:53:34.566Z,22.71
2023-05-02T19:56:04.991Z,22.47
2023-05-02T19:58:33.293Z,22.97
2023-05-02T20:01:02.097Z,22.71
2023-05-02T20:03:30.472Z,22.62
2023-05-02T20:06:00.771Z,22.32
2023-05-02T20:08:31.679Z,22.31
2023-05-02T20:11:00.300Z,22.90
2023-05-02T20:13:28.719Z,23.11
2023-05-02T20:15:57.206Z,22.95
2023-05-02T20:18:25.677Z,23.52
2023-05-02T20:20:54.135Z,23.75
2023-05-02T20:23:23.801Z,23.90
2023-05-02T20:25:52.443Z,23.84
2023-05-02T20:28:20.793Z,24.50
2023-05-02T20:30:49.587Z,24.17
2023-05-02T20:33:18.405Z,24.44
2023-05-02T20:35:47.197Z,24.24
2023-05-02T20:38:18.001Z,24.31
2023-05-02T20:40:47.889Z,24.11
2023-05-02T20:43:19.007Z,24.55
2023-05-02T20:45:47.490Z,23.16
2023-05-02T20:48:17.447Z,24.30
2023-05-02T20:50:53.573Z,23.75
2023-05-02T20:53:23.890Z,24.63
2023-05-02T20:55:54.141Z,24.23
2023-05-02T20:58:22.324Z,24.24
2023-05-02T21:00:52.767Z,24.56
2023-05-02T21:03:24.070Z,24.69
2023-05-02T21:05:53.514Z,24.63
2023-05-02T21:08:21.669Z,25.30
2023-05-02T21:10:50.586Z,24.83
2023-05-02T21:13:20.166Z,24.86
2023-05-02T21:15:48.705Z,25.45
2023-05-02T21:18:17.217Z,25.69
2023-05-02T21:20:45.924Z,25.76
2023-05-02T21:23:14.137Z,25.55
2023-05-02T21:25:42.950Z,25.96
2023-05-02T21:28:12.755Z,26.13
2023-05-02T21:30:42.757Z,25.76
2023-05-02T21:33:11.009Z,26.10
2023-05-02T21:35:39.591Z,26.30
2023-05-02T21:38:08.029Z,26.38
2023-05-02T21:40:37.440Z,26.36
2023-05-02T21:43:06.103Z,26.43
2023-05-02T21:45:36.019Z,26.40
2023-05-02T21:48:06.648Z,26.48
2023-05-02T21:50:35.362Z,26.60
2023-05-02T21:53:03.753Z,26.78
2023-05-02T21:55:32.360Z,26.60
2023-05-02T21:58:00.583Z,26.75
2023-05-02T22:00:29.149Z,27.03
2023-05-02T22:02:57.569Z,27.05
2023-05-02T22:05:28.296Z,26.60
2023-05-02T22:07:57.224Z,27.25
2023-05-02T22:10:26.007Z,27.07
2023-05-02T22:12:54.311Z,27.25
2023-05-02T22:15:22.918Z,27.26
2023-05-02T22:17:51.572Z,27.00
2023-05-02T22:20:20.210Z,27.15
2023-05-02T22:22:50.229Z,27.07
2023-05-02T22:25:19.056Z,27.36
2023-05-02T22:27:48.562Z,27.56
2023-05-02T22:30:17.524Z,27.47
2023-05-02T22:32:46.132Z,27.50
2023-05-02T22:35:15.076Z,27.69
2023-05-02T22:37:43.498Z,27.80
2023-05-02T22:40:14.427Z,27.45
2023-05-02T22:42:42.744Z,27.93
2023-05-02T22:45:13.608Z,27.78
2023-05-02T22:47:42.078Z,27.81
2023-05-02T22:50:11.524Z,27.98
2023-05-02T22:52:40.062Z,27.95
2023-05-02T22:55:10.376Z,28.00
2023-05-02T22:57:40.324Z,27.60
2023-05-02T23:00:10.818Z,27.77
2023-05-02T23:02:39.573Z,28.20
2023-05-02T23:05:09.846Z,28.26
2023-05-02T23:07:38.248Z,28.11
2023-05-02T23:10:08.286Z,28.11
2023-05-02T23:12:37.068Z,28.16
2023-05-02T23:15:09.105Z,28.21
2023-05-02T23:17:39.028Z,28.22
2023-05-02T23:20:10.359Z,28.63
2023-05-02T23:22:44.833Z,28.10
2023-05-02T23:25:13.904Z,28.46
2023-05-02T23:27:42.522Z,29.00
2023-05-02T23:30:13.180Z,28.93
2023-05-02T23:32:41.623Z,29.18
2023-05-02T23:35:12.200Z,28.54
2023-05-02T23:37:40.602Z,29.28
2023-05-02T23:40:10.565Z,29.36
2023-05-02T23:42:40.585Z,29.19
2023-05-02T23:45:09.620Z,29.15
2023-05-02T23:47:40.010Z,29.43
2023-05-02T23:50:09.513Z,29.50
2023-05-02T23:52:38.036Z,29.46
2023-05-02T23:55:10.657Z,29.29
2023-05-02T23:57:39.469Z,29.52
